createdAt,value
2018-12-27T00:00:06.788Z,50.98
2018-12-27T00:00:38.385Z,50.97
2018-12-27T00:01:09.997Z,51.00
2018-12-27T00:01:41.589Z,50.97
2018-12-27T00:02:13.192Z,51.06
2018-12-27T00:02:44.804Z,51.17
2018-12-27T00:03:16.436Z,51.26
2018-12-27T00:03:48.035Z,51.25
2018-12-27T00:04:19.640Z,51.18
2018-12-27T00:04:51.254Z,51.25
2018-12-27T00:05:22.856Z,51.19
2018-12-27T00:05:54.464Z,51.16
2018-12-27T00:06:26.057Z,51.14
2018-12-27T00:06:57.668Z,51.11
2018-12-27T00:07:29.287Z,51.19
2018-12-27T00:08:00.901Z,51.18
2018-12-27T00:08:32.494Z,51.46
2018-12-27T00:09:04.090Z,51.29
2018-12-27T00:09:35.682Z,51.29
2018-12-27T00:10:07.278Z,51.20
2018-12-27T00:10:38.878Z,51.21
2018-12-27T00:11:10.475Z,51.20
2018-12-27T00:11:42.069Z,51.20
2018-12-27T00:12:13.666Z,51.18
2018-12-27T00:12:45.257Z,51.27
2018-12-27T00:13:16.896Z,51.22
2018-12-27T00:13:48.507Z,51.21
2018-12-27T00:14:20.115Z,51.29
2018-12-27T00:14:51.712Z,51.27
2018-12-27T00:15:23.309Z,51.31
2018-12-27T00:15:54.920Z,51.28
2018-12-27T00:16:26.514Z,51.39
2018-12-27T00:16:58.115Z,51.42
2018-12-27T00:17:29.720Z,51.45
2018-12-27T00:18:01.313Z,51.45
2018-12-27T00:18:32.937Z,51.48
2018-12-27T00:19:04.544Z,51.48
2018-12-27T00:19:36.151Z,51.62
2018-12-27T00:20:07.750Z,51.54
2018-12-27T00:20:39.342Z,51.56
2018-12-27T00:21:10.938Z,51.63
2018-12-27T00:21:42.550Z,51.70
2018-12-27T00:22:14.146Z,51.74
2018-12-27T00:22:45.756Z,51.79
2018-12-27T00:23:17.378Z,51.83
2018-12-27T00:23:48.986Z,51.89
2018-12-27T00:24:20.645Z,51.98
2018-12-27T00:24:52.244Z,51.92
2018-12-27T00:25:23.838Z,51.92
2018-12-27T00:25:55.448Z,51.97
2018-12-27T00:26:27.040Z,52.12
2018-12-27T00:26:58.633Z,52.06
2018-12-27T00:27:30.232Z,52.15
2018-12-27T00:28:01.820Z,52.21
2018-12-27T00:28:33.456Z,52.43
2018-12-27T00:29:05.063Z,52.55
2018-12-27T00:29:36.661Z,52.28
2018-12-27T00:30:08.274Z,52.33
2018-12-27T00:30:39.870Z,52.57
2018-12-27T00:31:11.462Z,52.55
2018-12-27T00:31:43.061Z,52.58
2018-12-27T00:32:14.658Z,52.63
2018-12-27T00:32:46.240Z,52.66
2018-12-27T00:33:17.873Z,52.75
2018-12-27T00:33:49.497Z,52.80
2018-12-27T00:34:21.099Z,52.85
2018-12-27T00:34:52.732Z,52.98
2018-12-27T00:35:24.327Z,53.04
2018-12-27T00:35:55.917Z,53.02
2018-12-27T00:36:27.499Z,53.11
2018-12-27T00:36:59.098Z,53.23
2018-12-27T00:37:30.689Z,53.29
2018-12-27T00:38:02.273Z,53.40
2018-12-27T00:38:33.904Z,53.52
2018-12-27T00:39:05.503Z,53.54
2018-12-27T00:39:37.108Z,53.69
2018-12-27T00:40:08.716Z,53.65
2018-12-27T00:40:40.328Z,53.71
2018-12-27T00:41:11.936Z,53.81
2018-12-27T00:41:43.529Z,53.87
2018-12-27T00:42:15.125Z,53.88
2018-12-27T00:42:46.728Z,53.92
2018-12-27T00:43:18.321Z,53.98
2018-12-27T00:43:49.956Z,54.00
2018-12-27T00:44:21.554Z,54.11
2018-12-27T00:44:53.151Z,54.05
2018-12-27T00:45:24.756Z,54.11
2018-12-27T00:45:56.362Z,54.12
2018-12-27T00:46:27.974Z,54.19
2018-12-27T00:46:59.583Z,54.20
2018-12-27T00:47:31.185Z,54.25
2018-12-27T00:48:02.778Z,54.25
2018-12-27T00:48:34.411Z,54.28
2018-12-27T00:49:06.020Z,54.38
2018-12-27T00:49:37.618Z,54.38
2018-12-27T00:50:09.209Z,54.41
2018-12-27T00:50:40.801Z,54.42
2018-12-27T00:51:12.408Z,54.44
2018-12-27T00:51:44.015Z,54.46
2018-12-27T00:52:15.623Z,54.51
2018-12-27T00:52:47.221Z,54.52
2018-12-27T00:53:18.828Z,54.59
2018-12-27T00:53:50.446Z,54.61
2018-12-27T00:54:22.057Z,54.62
2018-12-27T00:54:54.674Z,54.61
2018-12-27T00:55:26.259Z,54.70
2018-12-27T00:55:57.854Z,54.70
2018-12-27T00:56:29.454Z,54.72
2018-12-27T00:57:01.060Z,54.75
2018-12-27T00:57:32.658Z,54.83
2018-12-27T00:58:04.235Z,54.83
2018-12-27T00:58:35.825Z,54.88
2018-12-27T00:59:07.447Z,54.87
2018-12-27T00:59:39.043Z,54.88
2018-12-27T01:00:10.648Z,54.94
2018-12-27T01:00:42.236Z,54.99
2018-12-27T01:01:13.812Z,55.06
2018-12-27T01:01:45.406Z,55.03
2018-12-27T01:02:16.997Z,55.12
2018-12-27T01:02:48.611Z,55.07
2018-12-27T01:03:20.205Z,55.10
2018-12-27T01:03:51.835Z,55.15
2018-12-27T01:04:23.420Z,55.18
2018-12-27T01:04:55.003Z,55.18
2018-12-27T01:05:26.607Z,55.25
2018-12-27T01:05:58.201Z,55.23
2018-12-27T01:06:29.808Z,55.29
2018-12-27T01:07:01.406Z,55.37
2018-12-27T01:07:32.991Z,55.55
2018-12-27T01:08:04.585Z,55.50
2018-12-27T01:08:36.177Z,55.52
2018-12-27T01:09:07.783Z,55.48
2018-12-27T01:09:39.391Z,55.52
2018-12-27T01:10:10.986Z,55.57
2018-12-27T01:10:42.578Z,55.57
2018-12-27T01:11:14.179Z,55.55
2018-12-27T01:11:45.774Z,55.58
2018-12-27T01:12:17.360Z,55.57
2018-12-27T01:12:48.956Z,55.64
2018-12-27T01:13:20.539Z,55.64
2018-12-27T01:13:52.138Z,55.68
2018-12-27T01:14:23.775Z,55.72
2018-12-27T01:14:55.370Z,55.78
2018-12-27T01:15:26.969Z,55.76
2018-12-27T01:15:58.562Z,55.80
2018-12-27T01:16:30.158Z,55.77
2018-12-27T01:17:01.768Z,55.68
2018-12-27T01:17:33.361Z,55.66
2018-12-27T01:18:04.946Z,55.57
2018-12-27T01:18:36.567Z,55.59
2018-12-27T01:19:08.176Z,55.56
2018-12-27T01:19:39.783Z,55.42
2018-12-27T01:20:11.370Z,55.54
2018-12-27T01:20:42.976Z,55.37
2018-12-27T01:21:14.569Z,55.33
2018-12-27T01:21:46.166Z,55.20
2018-12-27T01:22:17.759Z,55.15
2018-12-27T01:22:49.342Z,55.13
2018-12-27T01:23:20.948Z,55.08
2018-12-27T01:23:52.564Z,54.92
2018-12-27T01:24:24.195Z,55.03
2018-12-27T01:24:55.786Z,54.93
2018-12-27T01:25:27.387Z,54.82
2018-12-27T01:25:58.993Z,54.88
2018-12-27T01:26:30.600Z,54.96
2018-12-27T01:27:02.209Z,54.87
2018-12-27T01:27:33.816Z,54.73
2018-12-27T01:28:05.401Z,54.67
2018-12-27T01:28:36.989Z,54.58
2018-12-27T01:29:08.634Z,54.90
2018-12-27T01:29:40.226Z,54.68
2018-12-27T01:30:11.832Z,54.79
2018-12-27T01:30:43.423Z,54.53
2018-12-27T01:31:15.004Z,54.53
2018-12-27T01:31:50.579Z,54.41
2018-12-27T01:32:18.274Z,54.43
2018-12-27T01:32:49.869Z,54.48
2018-12-27T01:33:21.453Z,54.49
2018-12-27T01:33:53.046Z,54.41
2018-12-27T01:34:24.680Z,54.42
2018-12-27T01:34:56.296Z,54.62
2018-12-27T01:35:27.890Z,54.49
2018-12-27T01:35:59.490Z,54.74
2018-12-27T01:36:31.081Z,54.62
2018-12-27T01:37:02.683Z,54.48
2018-12-27T01:37:34.287Z,54.45
2018-12-27T01:38:05.887Z,54.42
2018-12-27T01:38:37.482Z,54.64
2018-12-27T01:39:09.067Z,54.63
2018-12-27T01:39:40.712Z,54.46
2018-12-27T01:40:12.305Z,54.41
2018-12-27T01:40:43.912Z,54.59
2018-12-27T01:41:15.506Z,54.43
2018-12-27T01:41:47.101Z,54.50
2018-12-27T01:42:18.702Z,54.58
2018-12-27T01:42:50.284Z,54.95
2018-12-27T01:43:21.865Z,54.68
2018-12-27T01:43:53.480Z,54.69
2018-12-27T01:44:25.103Z,55.10
2018-12-27T01:44:56.713Z,54.76
2018-12-27T01:45:28.315Z,54.71
2018-12-27T01:45:59.914Z,55.46
2018-12-27T01:46:31.509Z,55.21
2018-12-27T01:47:03.101Z,55.26
2018-12-27T01:47:34.707Z,54.78
2018-12-27T01:48:06.310Z,54.18
2018-12-27T01:48:37.910Z,54.16
2018-12-27T01:49:09.492Z,54.02
2018-12-27T01:49:41.123Z,54.32
2018-12-27T01:50:12.722Z,54.18
2018-12-27T01:50:44.304Z,54.05
2018-12-27T01:51:15.910Z,53.92
2018-12-27T01:51:47.511Z,53.98
2018-12-27T01:52:19.092Z,53.95
2018-12-27T01:52:50.696Z,53.97
2018-12-27T01:53:22.294Z,54.01
2018-12-27T01:53:53.887Z,53.93
2018-12-27T01:54:25.513Z,54.11
2018-12-27T01:54:57.120Z,54.07
2018-12-27T01:55:28.728Z,54.04
2018-12-27T01:56:00.322Z,53.99
2018-12-27T01:56:31.917Z,54.04
2018-12-27T01:57:03.497Z,54.15
2018-12-27T01:57:35.094Z,54.22
2018-12-27T01:58:06.695Z,54.27
2018-12-27T01:58:38.289Z,54.32
2018-12-27T01:59:09.896Z,54.34
2018-12-27T01:59:41.537Z,54.56
2018-12-27T02:00:13.144Z,54.73
2018-12-27T02:00:44.756Z,54.67
2018-12-27T02:01:16.363Z,54.61
2018-12-27T02:01:47.963Z,54.72
2018-12-27T02:02:19.666Z,54.71
2018-12-27T02:02:51.271Z,54.94
2018-12-27T02:03:26.432Z,54.91
2018-12-27T02:03:54.532Z,54.95
2018-12-27T02:04:26.143Z,54.94
2018-12-27T02:04:57.753Z,55.26
2018-12-27T02:05:29.419Z,55.13
2018-12-27T02:06:01.023Z,55.15
2018-12-27T02:06:32.639Z,55.21
2018-12-27T02:07:04.244Z,55.25
2018-12-27T02:07:35.837Z,55.38
2018-12-27T02:08:07.430Z,55.42
2018-12-27T02:08:39.050Z,55.41
2018-12-27T02:09:10.671Z,55.43
2018-12-27T02:09:42.298Z,55.51
2018-12-27T02:10:13.889Z,55.54
2018-12-27T02:10:45.481Z,55.51
2018-12-27T02:11:17.110Z,55.57
2018-12-27T02:11:48.711Z,55.59
2018-12-27T02:12:20.309Z,55.61
2018-12-27T02:12:51.907Z,55.65
2018-12-27T02:13:23.501Z,55.67
2018-12-27T02:13:55.079Z,55.82
2018-12-27T02:14:26.730Z,55.78
2018-12-27T02:14:58.339Z,55.85
2018-12-27T02:15:29.933Z,55.87
2018-12-27T02:16:01.540Z,55.90
2018-12-27T02:16:33.151Z,55.96
2018-12-27T02:17:04.749Z,56.05
2018-12-27T02:17:36.341Z,55.97
2018-12-27T02:18:07.927Z,56.05
2018-12-27T02:18:39.531Z,56.15
2018-12-27T02:19:11.127Z,56.16
2018-12-27T02:19:42.721Z,56.10
2018-12-27T02:20:14.352Z,56.13
2018-12-27T02:20:45.946Z,56.20
2018-12-27T02:21:17.541Z,56.25
2018-12-27T02:21:49.149Z,56.46
2018-12-27T02:22:20.749Z,56.47
2018-12-27T02:22:52.352Z,56.58
2018-12-27T02:23:23.955Z,56.74
2018-12-27T02:23:55.555Z,56.75
2018-12-27T02:24:27.150Z,56.69
2018-12-27T02:24:58.775Z,56.78
2018-12-27T02:25:30.370Z,56.81
2018-12-27T02:26:01.968Z,56.89
2018-12-27T02:26:33.575Z,56.94
2018-12-27T02:27:05.173Z,56.95
2018-12-27T02:27:36.771Z,57.05
2018-12-27T02:28:08.369Z,57.10
2018-12-27T02:28:39.965Z,57.13
2018-12-27T02:29:11.561Z,57.14
2018-12-27T02:29:43.162Z,57.09
2018-12-27T02:30:14.792Z,57.16
2018-12-27T02:30:46.380Z,57.18
2018-12-27T02:31:17.984Z,57.25
2018-12-27T02:31:49.590Z,57.31
2018-12-27T02:32:21.190Z,57.36
2018-12-27T02:32:52.806Z,57.37
2018-12-27T02:33:24.402Z,57.41
2018-12-27T02:33:56.021Z,57.41
2018-12-27T02:34:27.633Z,57.36
2018-12-27T02:34:59.278Z,57.38
2018-12-27T02:35:30.898Z,57.46
2018-12-27T02:36:02.501Z,57.47
2018-12-27T02:36:34.121Z,57.43
2018-12-27T02:37:05.726Z,57.44
2018-12-27T02:37:37.322Z,57.45
2018-12-27T02:38:08.922Z,57.51
2018-12-27T02:38:40.524Z,57.42
2018-12-27T02:39:12.136Z,57.41
2018-12-27T02:39:43.735Z,57.41
2018-12-27T02:40:15.376Z,57.46
2018-12-27T02:40:46.981Z,57.60
2018-12-27T02:41:18.595Z,57.73
2018-12-27T02:41:50.199Z,57.66
2018-12-27T02:42:21.805Z,57.58
2018-12-27T02:42:53.405Z,57.60
2018-12-27T02:43:24.998Z,57.56
2018-12-27T02:43:56.603Z,57.55
2018-12-27T02:44:28.208Z,57.52
2018-12-27T02:44:59.820Z,57.51
2018-12-27T02:45:31.444Z,57.50
2018-12-27T02:46:03.042Z,57.54
2018-12-27T02:46:34.633Z,57.57
2018-12-27T02:47:06.226Z,57.56
2018-12-27T02:47:37.822Z,57.59
2018-12-27T02:48:09.421Z,57.56
2018-12-27T02:48:41.013Z,57.56
2018-12-27T02:49:12.602Z,57.52
2018-12-27T02:49:44.236Z,57.47
2018-12-27T02:50:15.882Z,57.42
2018-12-27T02:50:47.478Z,57.36
2018-12-27T02:51:19.085Z,57.36
2018-12-27T02:51:50.683Z,57.32
2018-12-27T02:52:22.300Z,57.22
2018-12-27T02:52:53.893Z,57.21
2018-12-27T02:53:25.479Z,57.04
2018-12-27T02:53:57.074Z,57.07
2018-12-27T02:54:28.673Z,57.03
2018-12-27T02:55:00.274Z,56.89
2018-12-27T02:55:31.934Z,56.79
2018-12-27T02:56:03.538Z,56.63
2018-12-27T02:56:35.146Z,56.64
2018-12-27T02:57:06.752Z,56.46
2018-12-27T02:57:38.324Z,56.19
2018-12-27T02:58:09.924Z,56.20
2018-12-27T02:58:41.523Z,55.97
2018-12-27T02:59:13.119Z,55.86
2018-12-27T02:59:44.725Z,55.77
2018-12-27T03:00:16.334Z,55.72
2018-12-27T03:00:47.960Z,55.56
2018-12-27T03:01:19.553Z,55.46
2018-12-27T03:01:51.145Z,55.44
2018-12-27T03:02:22.756Z,55.34
2018-12-27T03:02:54.454Z,55.32
2018-12-27T03:03:25.997Z,55.23
2018-12-27T03:03:57.592Z,55.13
2018-12-27T03:04:29.211Z,54.98
2018-12-27T03:05:00.817Z,55.15
2018-12-27T03:05:32.438Z,54.98
2018-12-27T03:06:04.042Z,55.12
2018-12-27T03:06:35.637Z,54.89
2018-12-27T03:07:07.240Z,54.83
2018-12-27T03:07:38.908Z,54.77
2018-12-27T03:08:10.502Z,54.83
2018-12-27T03:08:42.096Z,54.86
2018-12-27T03:09:13.679Z,54.91
2018-12-27T03:09:45.273Z,54.88
2018-12-27T03:10:16.856Z,54.69
2018-12-27T03:10:48.463Z,54.69
2018-12-27T03:11:20.071Z,54.64
2018-12-27T03:11:51.666Z,54.66
2018-12-27T03:12:23.248Z,54.56
2018-12-27T03:12:54.842Z,54.57
2018-12-27T03:13:26.453Z,54.54
2018-12-27T03:13:58.072Z,54.57
2018-12-27T03:14:29.665Z,54.60
2018-12-27T03:15:01.278Z,54.49
2018-12-27T03:15:32.888Z,54.65
2018-12-27T03:16:04.519Z,54.49
2018-12-27T03:16:36.133Z,54.51
2018-12-27T03:17:07.729Z,54.78
2018-12-27T03:17:39.335Z,54.61
2018-12-27T03:18:10.942Z,54.82
2018-12-27T03:18:42.551Z,54.76
2018-12-27T03:19:14.149Z,54.92
2018-12-27T03:19:45.728Z,55.03
2018-12-27T03:20:17.308Z,54.98
2018-12-27T03:20:48.926Z,54.85
2018-12-27T03:21:20.536Z,55.15
2018-12-27T03:21:52.143Z,55.04
2018-12-27T03:22:23.728Z,55.01
2018-12-27T03:22:55.322Z,55.01
2018-12-27T03:23:26.927Z,55.13
2018-12-27T03:23:58.521Z,54.98
2018-12-27T03:24:30.160Z,55.06
2018-12-27T03:25:01.763Z,55.47
2018-12-27T03:25:33.377Z,55.24
2018-12-27T03:26:05.015Z,55.36
2018-12-27T03:26:36.618Z,55.35
2018-12-27T03:27:08.221Z,55.31
2018-12-27T03:27:39.819Z,55.40
2018-12-27T03:28:11.404Z,55.46
2018-12-27T03:28:43.005Z,55.46
2018-12-27T03:29:14.620Z,55.46
2018-12-27T03:29:46.214Z,55.49
2018-12-27T03:30:17.822Z,55.96
2018-12-27T03:30:49.476Z,56.00
2018-12-27T03:31:21.100Z,55.96
2018-12-27T03:31:52.704Z,56.04
2018-12-27T03:32:24.339Z,56.06
2018-12-27T03:32:55.949Z,56.09
2018-12-27T03:33:27.565Z,56.12
2018-12-27T03:33:59.148Z,56.23
2018-12-27T03:34:30.741Z,56.27
2018-12-27T03:35:02.340Z,56.28
2018-12-27T03:35:33.921Z,56.32
2018-12-27T03:36:05.533Z,56.32
2018-12-27T03:36:37.126Z,56.44
2018-12-27T03:37:08.718Z,56.44
2018-12-27T03:37:40.326Z,56.60
2018-12-27T03:38:11.944Z,56.54
2018-12-27T03:38:43.550Z,56.52
2018-12-27T03:39:15.156Z,56.62
2018-12-27T03:39:46.749Z,56.82
2018-12-27T03:40:18.343Z,56.84
2018-12-27T03:40:49.980Z,56.93
2018-12-27T03:41:21.595Z,56.96
2018-12-27T03:41:53.185Z,57.02
2018-12-27T03:42:24.783Z,57.04
2018-12-27T03:42:56.377Z,56.92
2018-12-27T03:43:27.977Z,57.04
2018-12-27T03:43:59.588Z,57.08
2018-12-27T03:44:31.186Z,57.06
2018-12-27T03:45:02.802Z,57.12
2018-12-27T03:45:34.397Z,57.13
2018-12-27T03:46:06.014Z,57.23
2018-12-27T03:46:37.627Z,57.17
2018-12-27T03:47:09.235Z,57.25
2018-12-27T03:47:40.837Z,57.20
2018-12-27T03:48:12.435Z,57.30
2018-12-27T03:48:44.023Z,57.41
2018-12-27T03:49:15.617Z,57.32
2018-12-27T03:49:47.210Z,57.75
2018-12-27T03:50:18.814Z,57.70
2018-12-27T03:50:50.402Z,57.71
2018-12-27T03:51:22.048Z,57.70
2018-12-27T03:51:53.641Z,57.71
2018-12-27T03:52:25.224Z,57.66
2018-12-27T03:52:56.823Z,57.61
2018-12-27T03:53:28.418Z,57.66
2018-12-27T03:54:00.020Z,57.67
2018-12-27T03:54:31.626Z,57.66
2018-12-27T03:55:03.233Z,57.82
2018-12-27T03:55:34.858Z,57.93
2018-12-27T03:56:06.527Z,57.87
2018-12-27T03:56:38.140Z,57.89
2018-12-27T03:57:09.739Z,57.96
2018-12-27T03:57:41.333Z,58.03
2018-12-27T03:58:12.940Z,58.07
2018-12-27T03:58:44.548Z,58.10
2018-12-27T03:59:16.131Z,58.19
2018-12-27T03:59:47.725Z,58.11
2018-12-27T04:00:19.319Z,58.17
2018-12-27T04:00:50.936Z,58.21
2018-12-27T04:01:22.559Z,58.19
2018-12-27T04:01:54.158Z,58.28
2018-12-27T04:02:25.754Z,58.31
2018-12-27T04:02:57.360Z,58.29
2018-12-27T04:03:28.970Z,58.31
2018-12-27T04:04:01.612Z,58.31
2018-12-27T04:04:32.239Z,58.33
2018-12-27T04:05:03.834Z,58.35
2018-12-27T04:05:35.430Z,58.57
2018-12-27T04:06:07.029Z,58.62
2018-12-27T04:06:38.659Z,58.61
2018-12-27T04:07:10.255Z,58.42
2018-12-27T04:07:41.868Z,58.46
2018-12-27T04:08:13.481Z,58.46
2018-12-27T04:08:45.121Z,58.55
2018-12-27T04:09:16.714Z,58.52
2018-12-27T04:09:48.325Z,58.53
2018-12-27T04:10:19.935Z,58.58
2018-12-27T04:10:51.536Z,58.60
2018-12-27T04:11:23.162Z,58.64
2018-12-27T04:11:54.758Z,58.75
2018-12-27T04:12:26.360Z,58.90
2018-12-27T04:12:57.956Z,58.57
2018-12-27T04:13:29.555Z,58.73
2018-12-27T04:14:01.146Z,58.64
2018-12-27T04:14:32.749Z,58.59
2018-12-27T04:15:04.341Z,58.52
2018-12-27T04:15:35.944Z,58.47
2018-12-27T04:16:07.552Z,58.40
2018-12-27T04:16:39.170Z,58.25
2018-12-27T04:17:10.779Z,58.11
2018-12-27T04:17:42.387Z,57.93
2018-12-27T04:18:13.971Z,57.88
2018-12-27T04:18:45.581Z,57.73
2018-12-27T04:19:17.168Z,57.63
2018-12-27T04:19:48.747Z,57.47
2018-12-27T04:20:20.355Z,57.28
2018-12-27T04:20:51.968Z,57.09
2018-12-27T04:21:23.581Z,56.94
2018-12-27T04:21:55.213Z,56.82
2018-12-27T04:22:26.821Z,56.64
2018-12-27T04:22:58.437Z,56.46
2018-12-27T04:23:30.030Z,56.40
2018-12-27T04:24:01.641Z,56.14
2018-12-27T04:24:33.224Z,56.26
2018-12-27T04:25:04.817Z,56.10
2018-12-27T04:25:36.411Z,55.91
2018-12-27T04:26:08.006Z,55.73
2018-12-27T04:26:39.625Z,55.55
2018-12-27T04:27:11.210Z,55.43
2018-12-27T04:27:42.807Z,55.33
2018-12-27T04:28:14.409Z,55.29
2018-12-27T04:28:46.015Z,55.22
2018-12-27T04:29:17.622Z,55.24
2018-12-27T04:29:49.214Z,55.24
2018-12-27T04:30:20.826Z,55.11
2018-12-27T04:30:52.423Z,55.08
2018-12-27T04:31:24.015Z,54.99
2018-12-27T04:31:55.638Z,55.10
2018-12-27T04:32:27.240Z,55.10
2018-12-27T04:32:58.835Z,55.08
2018-12-27T04:33:30.433Z,55.09
2018-12-27T04:34:09.333Z,55.24
2018-12-27T04:34:33.672Z,55.18
2018-12-27T04:35:05.278Z,55.22
2018-12-27T04:35:36.886Z,55.19
2018-12-27T04:36:08.481Z,55.11
2018-12-27T04:36:40.116Z,55.17
2018-12-27T04:37:11.732Z,55.24
2018-12-27T04:37:43.330Z,55.19
2018-12-27T04:38:14.922Z,55.26
2018-12-27T04:38:46.526Z,55.23
2018-12-27T04:39:18.124Z,55.28
2018-12-27T04:39:49.737Z,55.37
2018-12-27T04:40:21.334Z,55.25
2018-12-27T04:40:52.944Z,55.22
2018-12-27T04:41:24.536Z,55.20
2018-12-27T04:41:56.172Z,55.28
2018-12-27T04:42:27.767Z,55.12
2018-12-27T04:42:59.385Z,55.33
2018-12-27T04:43:30.981Z,55.07
2018-12-27T04:44:02.573Z,55.23
2018-12-27T04:44:34.179Z,55.10
2018-12-27T04:45:05.778Z,55.31
2018-12-27T04:45:37.688Z,55.18
2018-12-27T04:46:09.295Z,55.33
2018-12-27T04:46:40.931Z,55.28
2018-12-27T04:47:12.540Z,55.50
2018-12-27T04:47:44.156Z,55.77
2018-12-27T04:48:15.768Z,55.60
2018-12-27T04:48:47.373Z,55.62
2018-12-27T04:49:18.969Z,55.57
2018-12-27T04:49:50.548Z,55.77
2018-12-27T04:50:22.133Z,55.67
2018-12-27T04:50:53.730Z,55.66
2018-12-27T04:51:25.338Z,55.70
2018-12-27T04:51:56.967Z,55.74
2018-12-27T04:52:28.576Z,55.82
2018-12-27T04:53:00.175Z,55.87
2018-12-27T04:53:31.779Z,55.84
2018-12-27T04:54:03.373Z,55.92
2018-12-27T04:54:34.992Z,55.94
2018-12-27T04:55:06.594Z,56.04
2018-12-27T04:55:38.204Z,56.14
2018-12-27T04:56:09.812Z,56.09
2018-12-27T04:56:41.415Z,56.16
2018-12-27T04:57:13.039Z,56.18
2018-12-27T04:57:44.636Z,56.32
2018-12-27T04:58:16.224Z,56.32
2018-12-27T04:58:48.236Z,56.24
2018-12-27T04:59:19.842Z,56.43
2018-12-27T04:59:51.434Z,56.53
2018-12-27T05:00:23.046Z,56.56
2018-12-27T05:00:54.642Z,56.48
2018-12-27T05:01:26.243Z,56.60
2018-12-27T05:01:57.875Z,56.67
2018-12-27T05:02:29.513Z,56.75
2018-12-27T05:03:01.143Z,56.76
2018-12-27T05:03:32.756Z,56.86
2018-12-27T05:04:04.364Z,56.84
2018-12-27T05:04:35.977Z,56.91
2018-12-27T05:05:07.569Z,56.98
2018-12-27T05:05:39.171Z,56.99
2018-12-27T05:06:10.767Z,57.01
2018-12-27T05:06:42.391Z,57.23
2018-12-27T05:07:14.005Z,57.14
2018-12-27T05:07:45.608Z,57.09
2018-12-27T05:08:17.220Z,57.20
2018-12-27T05:08:48.809Z,57.14
2018-12-27T05:09:20.392Z,57.21
2018-12-27T05:09:52.000Z,57.33
2018-12-27T05:10:23.597Z,57.30
2018-12-27T05:10:55.190Z,57.43
2018-12-27T05:11:26.792Z,57.43
2018-12-27T05:11:58.396Z,57.47
2018-12-27T05:12:30.032Z,57.47
2018-12-27T05:13:01.616Z,57.55
2018-12-27T05:13:33.201Z,57.69
2018-12-27T05:14:04.784Z,57.81
2018-12-27T05:14:36.369Z,57.68
2018-12-27T05:15:07.965Z,57.74
2018-12-27T05:15:39.562Z,57.72
2018-12-27T05:16:11.248Z,57.81
2018-12-27T05:16:42.855Z,57.89
2018-12-27T05:17:14.495Z,57.82
2018-12-27T05:17:46.099Z,57.91
2018-12-27T05:18:17.697Z,57.92
2018-12-27T05:18:49.301Z,57.96
2018-12-27T05:19:20.902Z,58.11
2018-12-27T05:19:52.511Z,58.19
2018-12-27T05:20:24.111Z,58.20
2018-12-27T05:20:55.717Z,58.23
2018-12-27T05:21:27.331Z,58.23
2018-12-27T05:21:58.944Z,58.14
2018-12-27T05:22:30.584Z,58.13
2018-12-27T05:23:02.205Z,58.29
2018-12-27T05:23:33.812Z,58.34
2018-12-27T05:24:05.425Z,58.20
2018-12-27T05:24:37.025Z,58.44
2018-12-27T05:25:08.632Z,58.39
2018-12-27T05:25:40.244Z,58.37
2018-12-27T05:26:11.846Z,58.38
2018-12-27T05:26:43.450Z,58.54
2018-12-27T05:27:15.036Z,58.42
2018-12-27T05:27:46.676Z,58.49
2018-12-27T05:28:18.257Z,58.60
2018-12-27T05:28:50.086Z,58.64
2018-12-27T05:29:21.672Z,58.69
2018-12-27T05:29:53.273Z,58.67
2018-12-27T05:30:24.870Z,58.73
2018-12-27T05:30:56.471Z,58.66
2018-12-27T05:31:28.066Z,58.70
2018-12-27T05:31:59.644Z,58.75
2018-12-27T05:32:31.268Z,58.83
2018-12-27T05:33:02.877Z,58.79
2018-12-27T05:33:34.484Z,58.75
2018-12-27T05:34:06.092Z,58.87
2018-12-27T05:34:37.704Z,58.94
2018-12-27T05:35:09.302Z,58.86
2018-12-27T05:35:40.894Z,59.06
2018-12-27T05:36:12.499Z,59.09
2018-12-27T05:36:44.094Z,59.04
2018-12-27T05:37:15.688Z,59.18
2018-12-27T05:37:47.328Z,59.09
2018-12-27T05:38:18.986Z,59.06
2018-12-27T05:38:50.598Z,59.15
2018-12-27T05:39:22.184Z,59.17
2018-12-27T05:39:53.768Z,59.27
2018-12-27T05:40:25.362Z,59.20
2018-12-27T05:40:56.970Z,59.15
2018-12-27T05:41:28.570Z,59.16
2018-12-27T05:42:00.280Z,59.15
2018-12-27T05:42:31.914Z,59.00
2018-12-27T05:43:03.524Z,58.99
2018-12-27T05:43:35.121Z,58.93
2018-12-27T05:44:06.708Z,58.95
2018-12-27T05:44:38.297Z,58.73
2018-12-27T05:45:09.908Z,58.79
2018-12-27T05:45:41.522Z,58.75
2018-12-27T05:46:13.128Z,58.68
2018-12-27T05:46:44.726Z,58.54
2018-12-27T05:47:16.339Z,58.56
2018-12-27T05:47:47.970Z,58.38
2018-12-27T05:48:19.576Z,58.24
2018-12-27T05:48:51.170Z,58.22
2018-12-27T05:49:22.763Z,58.15
2018-12-27T05:49:54.362Z,58.09
2018-12-27T05:50:25.955Z,57.93
2018-12-27T05:50:57.551Z,57.82
2018-12-27T05:51:29.146Z,57.85
2018-12-27T05:52:00.742Z,57.58
2018-12-27T05:52:32.330Z,57.58
2018-12-27T05:53:03.964Z,57.50
2018-12-27T05:53:35.584Z,57.32
2018-12-27T05:54:07.188Z,57.17
2018-12-27T05:54:38.808Z,57.09
2018-12-27T05:55:10.415Z,57.25
2018-12-27T05:55:42.023Z,57.32
2018-12-27T05:56:13.622Z,57.13
2018-12-27T05:56:45.218Z,56.67
2018-12-27T05:57:16.813Z,56.75
2018-12-27T05:57:48.434Z,56.65
2018-12-27T05:58:20.033Z,56.49
2018-12-27T05:58:51.639Z,56.45
2018-12-27T05:59:23.232Z,56.26
2018-12-27T05:59:54.864Z,56.20
2018-12-27T06:00:26.458Z,56.04
2018-12-27T06:00:58.071Z,55.95
2018-12-27T06:01:29.670Z,55.92
2018-12-27T06:02:01.266Z,55.91
2018-12-27T06:02:32.868Z,55.88
2018-12-27T06:03:04.499Z,55.93
2018-12-27T06:03:36.114Z,55.85
2018-12-27T06:04:07.723Z,55.80
2018-12-27T06:04:39.318Z,55.79
2018-12-27T06:05:10.932Z,55.88
2018-12-27T06:05:42.543Z,55.81
2018-12-27T06:06:14.161Z,55.73
2018-12-27T06:06:45.752Z,55.65
2018-12-27T06:07:17.360Z,55.80
2018-12-27T06:07:48.995Z,55.61
2018-12-27T06:08:20.588Z,55.71
2018-12-27T06:08:52.168Z,55.71
2018-12-27T06:09:23.767Z,55.54
2018-12-27T06:09:55.366Z,55.42
2018-12-27T06:10:26.962Z,55.53
2018-12-27T06:10:58.572Z,55.43
2018-12-27T06:11:30.310Z,55.54
2018-12-27T06:12:01.921Z,55.49
2018-12-27T06:12:33.531Z,55.67
2018-12-27T06:13:05.164Z,55.72
2018-12-27T06:13:36.761Z,55.73
2018-12-27T06:14:08.364Z,55.64
2018-12-27T06:14:39.967Z,55.64
2018-12-27T06:15:11.561Z,55.73
2018-12-27T06:15:43.157Z,55.72
2018-12-27T06:16:14.769Z,55.89
2018-12-27T06:16:46.375Z,55.78
2018-12-27T06:17:17.973Z,55.81
2018-12-27T06:17:49.575Z,55.92
2018-12-27T06:18:21.245Z,56.06
2018-12-27T06:18:52.844Z,56.04
2018-12-27T06:19:24.442Z,55.86
2018-12-27T06:19:56.041Z,56.03
2018-12-27T06:20:27.624Z,56.15
2018-12-27T06:20:59.231Z,56.30
2018-12-27T06:21:30.823Z,56.12
2018-12-27T06:22:02.418Z,56.14
2018-12-27T06:22:34.023Z,56.38
2018-12-27T06:23:05.649Z,56.50
2018-12-27T06:23:37.246Z,56.47
2018-12-27T06:24:08.843Z,56.53
2018-12-27T06:24:40.445Z,56.54
2018-12-27T06:25:12.042Z,56.66
2018-12-27T06:25:43.637Z,56.60
2018-12-27T06:26:15.229Z,56.62
2018-12-27T06:26:46.825Z,56.68
2018-12-27T06:27:18.436Z,56.78
2018-12-27T06:27:50.020Z,56.74
2018-12-27T06:28:21.638Z,56.97
2018-12-27T06:28:53.241Z,56.89
2018-12-27T06:29:24.843Z,56.92
2018-12-27T06:29:56.448Z,57.01
2018-12-27T06:30:28.051Z,57.05
2018-12-27T06:30:59.650Z,57.05
2018-12-27T06:31:31.251Z,57.23
2018-12-27T06:32:02.851Z,57.11
2018-12-27T06:32:34.439Z,57.22
2018-12-27T06:33:06.070Z,57.37
2018-12-27T06:33:37.764Z,57.51
2018-12-27T06:34:09.376Z,57.73
2018-12-27T06:34:41.479Z,57.69
2018-12-27T06:35:12.668Z,57.71
2018-12-27T06:35:44.284Z,57.72
2018-12-27T06:36:15.886Z,57.86
2018-12-27T06:36:47.492Z,57.82
2018-12-27T06:37:19.095Z,57.89
2018-12-27T06:37:50.684Z,58.03
2018-12-27T06:38:22.309Z,58.49
2018-12-27T06:38:53.913Z,58.40
2018-12-27T06:39:25.520Z,58.58
2018-12-27T06:39:57.174Z,58.55
2018-12-27T06:40:28.780Z,58.59
2018-12-27T06:41:00.379Z,58.65
2018-12-27T06:41:31.972Z,58.61
2018-12-27T06:42:03.566Z,58.76
2018-12-27T06:42:35.158Z,58.98
2018-12-27T06:43:06.749Z,58.96
2018-12-27T06:43:38.374Z,58.75
2018-12-27T06:44:09.996Z,58.89
2018-12-27T06:44:41.580Z,58.87
2018-12-27T06:45:13.189Z,58.72
2018-12-27T06:45:44.792Z,58.84
2018-12-27T06:46:16.382Z,58.81
2018-12-27T06:46:47.964Z,58.84